Portada
METAR-TAF:

METAR-TAF

Aeroports :

Penn Valley Airport

Selinsgrove, Pennsilvània, Estats Units d'Amèrica

latitud: 40-49-09N, longitud: 076-51-58W, altitud: 137 m

Observació

L'informe es va fer fa 56 minuts, a les 06:53 UTC
Vent calma
Temperatura 1°C
Humitat 93%
Pressió 1028 hPa
Visibilitat: 16.1 km
Cel clar

METAR: KSEG 310653Z AUTO 00000KT 10SM CLR 01/00 A3037 RMK AO2 SLP287 T00060000

Hora: 03:49 (07:49 UTC)


TAF: manca

Observacions i pronòstics meteorològics de més de 4000 aeroports (METAR i TAF).

Les estacions disponibles són els punts grocs i vermells al mapa.

Posi el ratolí al punt desitjat per veure el nom de l'estació.

Feu clic per veure les observacions i els pronòstics meteorològics.

Per canviar el mapa: feu clic els botons verds amb una creu de color negre per apropar; al botó verd amb un guió per allunyar la imatge; o en les fletxes verdes per a mapes adjacents.


METAR-TAF: